sensor_id;sensor_type;location;lat;lon;timestamp;P1;durP1;ratioP1;P2;durP2;ratioP2
68718;SDS011;55696;52.138;5.444;2023-03-01T00:01:26;13.05;;;7.60;;
68718;SDS011;55696;52.138;5.444;2023-03-01T00:03:55;14.50;;;7.32;;
68718;SDS011;55696;52.138;5.444;2023-03-01T00:06:23;13.93;;;8.13;;
68718;SDS011;55696;52.138;5.444;2023-03-01T00:08:50;21.95;;;8.50;;
68718;SDS011;55696;52.138;5.444;2023-03-01T00:11:27;23.67;;;7.85;;
68718;SDS011;55696;52.138;5.444;2023-03-01T00:13:57;13.20;;;7.77;;
68718;SDS011;55696;52.138;5.444;2023-03-01T00:16:27;14.68;;;7.47;;
68718;SDS011;55696;52.138;5.444;2023-03-01T00:18:56;16.38;;;8.50;;
68718;SDS011;55696;52.138;5.444;2023-03-01T00:21:23;15.48;;;8.07;;
68718;SDS011;55696;52.138;5.444;2023-03-01T00:23:51;14.30;;;8.50;;
68718;SDS011;55696;52.138;5.444;2023-03-01T00:26:19;17.90;;;8.38;;
68718;SDS011;55696;52.138;5.444;2023-03-01T00:28:48;19.15;;;9.20;;
68718;SDS011;55696;52.138;5.444;2023-03-01T00:31:17;13.63;;;7.30;;
68718;SDS011;55696;52.138;5.444;2023-03-01T00:33:45;15.73;;;8.23;;
68718;SDS011;55696;52.138;5.444;2023-03-01T00:36:13;14.70;;;8.07;;
68718;SDS011;55696;52.138;5.444;2023-03-01T00:38:42;12.27;;;8.03;;
68718;SDS011;55696;52.138;5.444;2023-03-01T00:41:11;14.98;;;8.43;;
68718;SDS011;55696;52.138;5.444;2023-03-01T00:43:40;15.40;;;8.20;;
68718;SDS011;55696;52.138;5.444;2023-03-01T00:46:11;13.68;;;7.57;;
68718;SDS011;55696;52.138;5.444;2023-03-01T00:48:43;15.50;;;9.02;;
68718;SDS011;55696;52.138;5.444;2023-03-01T00:51:12;16.23;;;8.70;;
68718;SDS011;55696;52.138;5.444;2023-03-01T00:53:41;14.10;;;8.70;;
68718;SDS011;55696;52.138;5.444;2023-03-01T00:56:08;16.37;;;7.93;;
68718;SDS011;55696;52.138;5.444;2023-03-01T00:58:37;16.30;;;8.50;;
68718;SDS011;55696;52.138;5.444;2023-03-01T01:01:08;18.40;;;8.80;;
68718;SDS011;55696;52.138;5.444;2023-03-01T01:06:17;19.35;;;9.73;;
68718;SDS011;55696;52.138;5.444;2023-03-01T01:08:48;16.83;;;9.95;;
68718;SDS011;55696;52.138;5.444;2023-03-01T01:11:16;21.60;;;9.57;;
68718;SDS011;55696;52.138;5.444;2023-03-01T01:13:44;15.75;;;9.27;;
68718;SDS011;55696;52.138;5.444;2023-03-01T01:16:12;15.20;;;8.70;;
68718;SDS011;55696;52.138;5.444;2023-03-01T01:18:40;15.20;;;9.32;;
68718;SDS011;55696;52.138;5.444;2023-03-01T01:21:08;18.17;;;8.70;;
68718;SDS011;55696;52.138;5.444;2023-03-01T01:23:38;17.17;;;9.13;;
68718;SDS011;55696;52.138;5.444;2023-03-01T01:26:27;14.90;;;8.60;;
68718;SDS011;55696;52.138;5.444;2023-03-01T01:28:55;16.70;;;10.10;;
68718;SDS011;55696;52.138;5.444;2023-03-01T01:31:23;15.68;;;9.13;;
68718;SDS011;55696;52.138;5.444;2023-03-01T01:33:51;18.55;;;9.18;;
68718;SDS011;55696;52.138;5.444;2023-03-01T01:36:19;16.77;;;9.55;;
68718;SDS011;55696;52.138;5.444;2023-03-01T01:38:46;18.80;;;9.20;;
68718;SDS011;55696;52.138;5.444;2023-03-01T01:41:14;21.42;;;10.45;;
68718;SDS011;55696;52.138;5.444;2023-03-01T01:43:49;15.60;;;9.18;;
68718;SDS011;55696;52.138;5.444;2023-03-01T01:46:39;18.47;;;9.57;;
68718;SDS011;55696;52.138;5.444;2023-03-01T01:51:56;18.08;;;10.13;;
68718;SDS011;55696;52.138;5.444;2023-03-01T01:54:30;16.77;;;10.00;;
68718;SDS011;55696;52.138;5.444;2023-03-01T01:57:03;14.40;;;9.13;;
68718;SDS011;55696;52.138;5.444;2023-03-01T01:59:39;19.63;;;9.35;;
68718;SDS011;55696;52.138;5.444;2023-03-01T02:02:09;19.35;;;9.52;;
68718;SDS011;55696;52.138;5.444;2023-03-01T02:04:36;18.92;;;9.38;;
68718;SDS011;55696;52.138;5.444;2023-03-01T02:07:04;17.70;;;9.75;;
68718;SDS011;55696;52.138;5.444;2023-03-01T02:09:37;15.07;;;9.52;;
68718;SDS011;55696;52.138;5.444;2023-03-01T02:12:04;16.43;;;9.60;;
68718;SDS011;55696;52.138;5.444;2023-03-01T02:14:32;15.63;;;9.55;;
68718;SDS011;55696;52.138;5.444;2023-03-01T02:16:59;22.00;;;9.88;;
68718;SDS011;55696;52.138;5.444;2023-03-01T02:19:40;15.43;;;9.87;;
68718;SDS011;55696;52.138;5.444;2023-03-01T02:22:18;17.65;;;9.88;;
68718;SDS011;55696;52.138;5.444;2023-03-01T02:30:45;16.10;;;9.35;;
68718;SDS011;55696;52.138;5.444;2023-03-01T02:33:36;16.55;;;9.40;;
68718;SDS011;55696;52.138;5.444;2023-03-01T02:36:11;17.30;;;9.25;;
68718;SDS011;55696;52.138;5.444;2023-03-01T02:38:42;16.97;;;9.67;;
68718;SDS011;55696;52.138;5.444;2023-03-01T02:41:10;17.08;;;9.88;;
68718;SDS011;55696;52.138;5.444;2023-03-01T02:43:41;16.83;;;9.57;;
68718;SDS011;55696;52.138;5.444;2023-03-01T02:46:13;17.03;;;9.33;;
68718;SDS011;55696;52.138;5.444;2023-03-01T02:49:00;15.73;;;9.27;;
68718;SDS011;55696;52.138;5.444;2023-03-01T02:57:01;18.83;;;10.00;;
68718;SDS011;55696;52.138;5.444;2023-03-01T02:59:31;16.77;;;9.95;;
68718;SDS011;55696;52.138;5.444;2023-03-01T03:02:07;18.05;;;9.85;;
68718;SDS011;55696;52.138;5.444;2023-03-01T03:04:46;19.60;;;10.07;;
68718;SDS011;55696;52.138;5.444;2023-03-01T03:07:13;17.75;;;9.50;;
68718;SDS011;55696;52.138;5.444;2023-03-01T03:09:40;20.67;;;10.38;;
68718;SDS011;55696;52.138;5.444;2023-03-01T03:12:07;21.70;;;11.07;;
68718;SDS011;55696;52.138;5.444;2023-03-01T03:14:34;16.65;;;10.07;;
68718;SDS011;55696;52.138;5.444;2023-03-01T03:17:01;18.98;;;9.80;;
68718;SDS011;55696;52.138;5.444;2023-03-01T03:19:32;20.75;;;11.65;;
68718;SDS011;55696;52.138;5.444;2023-03-01T03:21:59;20.20;;;10.90;;
68718;SDS011;55696;52.138;5.444;2023-03-01T03:24:26;17.15;;;9.82;;
68718;SDS011;55696;52.138;5.444;2023-03-01T03:27:04;18.02;;;10.15;;
68718;SDS011;55696;52.138;5.444;2023-03-01T03:29:31;20.07;;;9.97;;
68718;SDS011;55696;52.138;5.444;2023-03-01T03:31:58;19.67;;;10.02;;
68718;SDS011;55696;52.138;5.444;2023-03-01T03:34:25;21.17;;;9.98;;
68718;SDS011;55696;52.138;5.444;2023-03-01T03:36:52;19.87;;;9.60;;
68718;SDS011;55696;52.138;5.444;2023-03-01T03:39:23;18.08;;;10.25;;
68718;SDS011;55696;52.138;5.444;2023-03-01T03:41:50;18.55;;;9.57;;
68718;SDS011;55696;52.138;5.444;2023-03-01T03:44:16;15.45;;;9.10;;
68718;SDS011;55696;52.138;5.444;2023-03-01T03:46:43;19.10;;;10.00;;
68718;SDS011;55696;52.138;5.444;2023-03-01T03:49:10;24.85;;;11.13;;
68718;SDS011;55696;52.138;5.444;2023-03-01T03:51:37;21.48;;;10.60;;
68718;SDS011;55696;52.138;5.444;2023-03-01T03:54:03;21.93;;;10.17;;
68718;SDS011;55696;52.138;5.444;2023-03-01T03:56:30;15.15;;;9.68;;
68718;SDS011;55696;52.138;5.444;2023-03-01T03:58:57;17.73;;;10.43;;
68718;SDS011;55696;52.138;5.444;2023-03-01T04:01:24;20.57;;;10.80;;
68718;SDS011;55696;52.138;5.444;2023-03-01T04:03:51;17.95;;;10.18;;
68718;SDS011;55696;52.138;5.444;2023-03-01T04:06:20;21.58;;;11.00;;
68718;SDS011;55696;52.138;5.444;2023-03-01T04:08:47;19.00;;;9.73;;
68718;SDS011;55696;52.138;5.444;2023-03-01T04:11:17;20.33;;;10.75;;
68718;SDS011;55696;52.138;5.444;2023-03-01T04:13:53;16.92;;;10.25;;
68718;SDS011;55696;52.138;5.444;2023-03-01T04:16:22;19.88;;;10.00;;
68718;SDS011;55696;52.138;5.444;2023-03-01T04:18:49;19.70;;;10.47;;
68718;SDS011;55696;52.138;5.444;2023-03-01T04:21:16;17.33;;;9.23;;
68718;SDS011;55696;52.138;5.444;2023-03-01T04:23:43;14.85;;;9.18;;
68718;SDS011;55696;52.138;5.444;2023-03-01T04:26:10;16.10;;;9.60;;
68718;SDS011;55696;52.138;5.444;2023-03-01T04:28:39;16.17;;;9.60;;
68718;SDS011;55696;52.138;5.444;2023-03-01T04:31:10;18.33;;;9.57;;
68718;SDS011;55696;52.138;5.444;2023-03-01T04:33:47;19.23;;;9.77;;
68718;SDS011;55696;52.138;5.444;2023-03-01T04:36:15;18.45;;;9.27;;
68718;SDS011;55696;52.138;5.444;2023-03-01T04:38:44;18.95;;;10.43;;
68718;SDS011;55696;52.138;5.444;2023-03-01T04:41:14;20.02;;;10.20;;
68718;SDS011;55696;52.138;5.444;2023-03-01T04:43:43;16.50;;;9.47;;
68718;SDS011;55696;52.138;5.444;2023-03-01T04:46:17;16.63;;;9.68;;
68718;SDS011;55696;52.138;5.444;2023-03-01T04:48:45;20.80;;;10.18;;
68718;SDS011;55696;52.138;5.444;2023-03-01T04:51:13;18.60;;;10.30;;
68718;SDS011;55696;52.138;5.444;2023-03-01T04:53:40;17.05;;;9.75;;
68718;SDS011;55696;52.138;5.444;2023-03-01T04:56:08;16.88;;;10.00;;
68718;SDS011;55696;52.138;5.444;2023-03-01T04:58:35;21.17;;;10.32;;
68718;SDS011;55696;52.138;5.444;2023-03-01T05:01:07;17.70;;;9.65;;
68718;SDS011;55696;52.138;5.444;2023-03-01T05:03:44;16.58;;;9.00;;
68718;SDS011;55696;52.138;5.444;2023-03-01T05:06:13;19.67;;;9.73;;
68718;SDS011;55696;52.138;5.444;2023-03-01T05:08:40;19.60;;;9.60;;
68718;SDS011;55696;52.138;5.444;2023-03-01T05:11:08;17.85;;;10.18;;
68718;SDS011;55696;52.138;5.444;2023-03-01T05:13:37;17.92;;;9.98;;
68718;SDS011;55696;52.138;5.444;2023-03-01T05:16:05;16.07;;;9.13;;
68718;SDS011;55696;52.138;5.444;2023-03-01T05:18:33;14.02;;;8.77;;
68718;SDS011;55696;52.138;5.444;2023-03-01T05:21:05;17.50;;;9.05;;
68718;SDS011;55696;52.138;5.444;2023-03-01T05:23:34;17.65;;;9.48;;
68718;SDS011;55696;52.138;5.444;2023-03-01T05:26:01;18.95;;;9.77;;
68718;SDS011;55696;52.138;5.444;2023-03-01T05:28:32;15.43;;;9.93;;
68718;SDS011;55696;52.138;5.444;2023-03-01T05:31:00;19.00;;;9.40;;
68718;SDS011;55696;52.138;5.444;2023-03-01T05:33:27;16.43;;;9.23;;
68718;SDS011;55696;52.138;5.444;2023-03-01T05:35:54;14.93;;;9.27;;
68718;SDS011;55696;52.138;5.444;2023-03-01T05:38:20;16.33;;;9.40;;
68718;SDS011;55696;52.138;5.444;2023-03-01T05:40:48;15.53;;;9.47;;
68718;SDS011;55696;52.138;5.444;2023-03-01T05:43:16;19.98;;;10.02;;
68718;SDS011;55696;52.138;5.444;2023-03-01T05:45:44;15.65;;;9.77;;
68718;SDS011;55696;52.138;5.444;2023-03-01T05:48:11;19.15;;;10.23;;
68718;SDS011;55696;52.138;5.444;2023-03-01T05:50:40;18.80;;;10.45;;
68718;SDS011;55696;52.138;5.444;2023-03-01T05:53:10;17.73;;;9.77;;
68718;SDS011;55696;52.138;5.444;2023-03-01T05:55:39;18.50;;;9.90;;
68718;SDS011;55696;52.138;5.444;2023-03-01T05:58:07;17.60;;;9.47;;
68718;SDS011;55696;52.138;5.444;2023-03-01T06:00:37;20.25;;;10.95;;
68718;SDS011;55696;52.138;5.444;2023-03-01T06:03:03;19.33;;;10.60;;
68718;SDS011;55696;52.138;5.444;2023-03-01T06:05:30;22.20;;;11.03;;
68718;SDS011;55696;52.138;5.444;2023-03-01T06:07:58;17.60;;;10.20;;
68718;SDS011;55696;52.138;5.444;2023-03-01T06:10:26;21.58;;;11.40;;
68718;SDS011;55696;52.138;5.444;2023-03-01T06:12:53;21.70;;;11.70;;
68718;SDS011;55696;52.138;5.444;2023-03-01T06:15:20;19.00;;;10.57;;
68718;SDS011;55696;52.138;5.444;2023-03-01T06:17:48;18.60;;;10.85;;
68718;SDS011;55696;52.138;5.444;2023-03-01T06:20:20;21.80;;;10.82;;
68718;SDS011;55696;52.138;5.444;2023-03-01T06:22:49;19.97;;;10.40;;
68718;SDS011;55696;52.138;5.444;2023-03-01T06:25:17;23.48;;;11.52;;
68718;SDS011;55696;52.138;5.444;2023-03-01T06:27:46;20.77;;;10.45;;
68718;SDS011;55696;52.138;5.444;2023-03-01T06:30:15;24.53;;;11.47;;
68718;SDS011;55696;52.138;5.444;2023-03-01T06:32:43;16.75;;;10.57;;
68718;SDS011;55696;52.138;5.444;2023-03-01T06:35:11;20.30;;;10.70;;
68718;SDS011;55696;52.138;5.444;2023-03-01T06:37:40;26.17;;;10.80;;
68718;SDS011;55696;52.138;5.444;2023-03-01T06:40:07;20.60;;;11.57;;
68718;SDS011;55696;52.138;5.444;2023-03-01T06:42:38;20.00;;;10.65;;
68718;SDS011;55696;52.138;5.444;2023-03-01T06:45:07;21.00;;;10.77;;
68718;SDS011;55696;52.138;5.444;2023-03-01T06:47:34;17.70;;;10.67;;
68718;SDS011;55696;52.138;5.444;2023-03-01T06:50:01;17.48;;;9.98;;
68718;SDS011;55696;52.138;5.444;2023-03-01T06:52:29;22.77;;;10.70;;
68718;SDS011;55696;52.138;5.444;2023-03-01T06:54:55;19.37;;;10.73;;
68718;SDS011;55696;52.138;5.444;2023-03-01T06:57:22;18.98;;;10.73;;
68718;SDS011;55696;52.138;5.444;2023-03-01T06:59:49;20.02;;;10.52;;
68718;SDS011;55696;52.138;5.444;2023-03-01T07:02:16;21.83;;;10.50;;
68718;SDS011;55696;52.138;5.444;2023-03-01T07:04:43;20.05;;;11.00;;
68718;SDS011;55696;52.138;5.444;2023-03-01T07:07:10;23.02;;;12.07;;
68718;SDS011;55696;52.138;5.444;2023-03-01T07:09:37;22.27;;;11.40;;
68718;SDS011;55696;52.138;5.444;2023-03-01T07:12:04;22.47;;;10.10;;
68718;SDS011;55696;52.138;5.444;2023-03-01T07:14:31;19.88;;;10.38;;
68718;SDS011;55696;52.138;5.444;2023-03-01T07:16:58;23.00;;;10.70;;
68718;SDS011;55696;52.138;5.444;2023-03-01T07:19:24;20.50;;;10.90;;
68718;SDS011;55696;52.138;5.444;2023-03-01T07:21:51;18.15;;;10.30;;
68718;SDS011;55696;52.138;5.444;2023-03-01T07:24:18;20.23;;;10.98;;
68718;SDS011;55696;52.138;5.444;2023-03-01T07:26:48;23.35;;;12.48;;
68718;SDS011;55696;52.138;5.444;2023-03-01T07:29:16;22.58;;;12.23;;
68718;SDS011;55696;52.138;5.444;2023-03-01T07:31:43;20.70;;;12.07;;
68718;SDS011;55696;52.138;5.444;2023-03-01T07:34:10;23.83;;;11.25;;
68718;SDS011;55696;52.138;5.444;2023-03-01T07:36:37;29.70;;;12.63;;
68718;SDS011;55696;52.138;5.444;2023-03-01T07:39:05;23.73;;;12.35;;
68718;SDS011;55696;52.138;5.444;2023-03-01T07:41:32;20.52;;;11.10;;
68718;SDS011;55696;52.138;5.444;2023-03-01T07:43:59;22.87;;;11.90;;
68718;SDS011;55696;52.138;5.444;2023-03-01T07:46:26;27.83;;;12.85;;
68718;SDS011;55696;52.138;5.444;2023-03-01T07:48:53;21.88;;;12.10;;
68718;SDS011;55696;52.138;5.444;2023-03-01T07:51:20;22.17;;;12.20;;
68718;SDS011;55696;52.138;5.444;2023-03-01T07:53:47;24.85;;;11.50;;
68718;SDS011;55696;52.138;5.444;2023-03-01T07:56:14;23.20;;;11.68;;
68718;SDS011;55696;52.138;5.444;2023-03-01T07:58:44;23.80;;;11.48;;
68718;SDS011;55696;52.138;5.444;2023-03-01T08:01:12;22.07;;;11.43;;
68718;SDS011;55696;52.138;5.444;2023-03-01T08:03:44;18.90;;;10.00;;
68718;SDS011;55696;52.138;5.444;2023-03-01T08:06:11;20.85;;;10.77;;
68718;SDS011;55696;52.138;5.444;2023-03-01T08:08:39;17.27;;;9.17;;
68718;SDS011;55696;52.138;5.444;2023-03-01T08:11:07;18.52;;;9.23;;
68718;SDS011;55696;52.138;5.444;2023-03-01T08:13:36;15.77;;;9.07;;
68718;SDS011;55696;52.138;5.444;2023-03-01T08:16:04;18.90;;;9.10;;
68718;SDS011;55696;52.138;5.444;2023-03-01T08:18:33;16.25;;;9.18;;
68718;SDS011;55696;52.138;5.444;2023-03-01T08:21:07;19.55;;;9.63;;
68718;SDS011;55696;52.138;5.444;2023-03-01T08:23:35;18.08;;;9.02;;
68718;SDS011;55696;52.138;5.444;2023-03-01T08:28:35;17.10;;;8.30;;
68718;SDS011;55696;52.138;5.444;2023-03-01T08:31:03;16.63;;;8.45;;
68718;SDS011;55696;52.138;5.444;2023-03-01T08:33:39;15.80;;;8.70;;
68718;SDS011;55696;52.138;5.444;2023-03-01T08:36:06;16.73;;;8.77;;
68718;SDS011;55696;52.138;5.444;2023-03-01T08:38:34;15.48;;;8.20;;
68718;SDS011;55696;52.138;5.444;2023-03-01T08:41:02;13.98;;;7.85;;
68718;SDS011;55696;52.138;5.444;2023-03-01T08:43:29;12.48;;;7.50;;
68718;SDS011;55696;52.138;5.444;2023-03-01T08:45:56;12.18;;;7.25;;
68718;SDS011;55696;52.138;5.444;2023-03-01T08:48:23;15.95;;;7.25;;
68718;SDS011;55696;52.138;5.444;2023-03-01T08:50:51;12.60;;;7.03;;
68718;SDS011;55696;52.138;5.444;2023-03-01T08:53:18;10.88;;;6.47;;
68718;SDS011;55696;52.138;5.444;2023-03-01T08:55:44;10.70;;;6.53;;
68718;SDS011;55696;52.138;5.444;2023-03-01T08:58:11;11.93;;;6.73;;
68718;SDS011;55696;52.138;5.444;2023-03-01T09:00:38;11.00;;;6.43;;
68718;SDS011;55696;52.138;5.444;2023-03-01T09:03:06;10.45;;;6.43;;
68718;SDS011;55696;52.138;5.444;2023-03-01T09:05:33;12.43;;;6.88;;
68718;SDS011;55696;52.138;5.444;2023-03-01T09:08:00;10.10;;;6.22;;
68718;SDS011;55696;52.138;5.444;2023-03-01T09:10:27;9.20;;;5.63;;
68718;SDS011;55696;52.138;5.444;2023-03-01T09:12:54;10.35;;;5.97;;
68718;SDS011;55696;52.138;5.444;2023-03-01T09:15:21;13.87;;;6.27;;
68718;SDS011;55696;52.138;5.444;2023-03-01T09:17:48;13.98;;;6.88;;
68718;SDS011;55696;52.138;5.444;2023-03-01T09:20:14;10.63;;;6.05;;
68718;SDS011;55696;52.138;5.444;2023-03-01T09:22:42;11.07;;;6.03;;
68718;SDS011;55696;52.138;5.444;2023-03-01T09:25:09;11.75;;;6.07;;
68718;SDS011;55696;52.138;5.444;2023-03-01T09:27:36;14.10;;;5.70;;
68718;SDS011;55696;52.138;5.444;2023-03-01T09:30:03;12.10;;;5.70;;
68718;SDS011;55696;52.138;5.444;2023-03-01T09:32:31;10.43;;;5.30;;
68718;SDS011;55696;52.138;5.444;2023-03-01T09:34:58;8.90;;;5.10;;
68718;SDS011;55696;52.138;5.444;2023-03-01T09:37:31;8.98;;;4.70;;
68718;SDS011;55696;52.138;5.444;2023-03-01T09:39:59;9.10;;;4.53;;
68718;SDS011;55696;52.138;5.444;2023-03-01T09:42:27;8.70;;;4.40;;
68718;SDS011;55696;52.138;5.444;2023-03-01T09:44:58;6.70;;;4.22;;
68718;SDS011;55696;52.138;5.444;2023-03-01T09:47:29;8.05;;;4.68;;
68718;SDS011;55696;52.138;5.444;2023-03-01T09:50:17;11.00;;;4.57;;
68718;SDS011;55696;52.138;5.444;2023-03-01T09:52:47;9.90;;;4.40;;
68718;SDS011;55696;52.138;5.444;2023-03-01T09:55:26;6.22;;;3.42;;
68718;SDS011;55696;52.138;5.444;2023-03-01T10:00:44;7.95;;;3.65;;
68718;SDS011;55696;52.138;5.444;2023-03-01T10:05:52;6.28;;;3.20;;
68718;SDS011;55696;52.138;5.444;2023-03-01T10:11:24;7.35;;;3.53;;
68718;SDS011;55696;52.138;5.444;2023-03-01T10:13:56;7.20;;;4.20;;
68718;SDS011;55696;52.138;5.444;2023-03-01T10:16:46;5.90;;;3.55;;
68718;SDS011;55696;52.138;5.444;2023-03-01T10:19:23;8.32;;;3.80;;
68718;SDS011;55696;52.138;5.444;2023-03-01T10:21:57;8.85;;;3.92;;
68718;SDS011;55696;52.138;5.444;2023-03-01T10:24:38;8.00;;;3.65;;
68718;SDS011;55696;52.138;5.444;2023-03-01T10:27:06;8.27;;;3.70;;
68718;SDS011;55696;52.138;5.444;2023-03-01T10:29:49;6.93;;;3.97;;
68718;SDS011;55696;52.138;5.444;2023-03-01T10:32:29;6.38;;;3.95;;
68718;SDS011;55696;52.138;5.444;2023-03-01T10:34:56;7.45;;;3.58;;
68718;SDS011;55696;52.138;5.444;2023-03-01T10:37:23;7.07;;;3.80;;
68718;SDS011;55696;52.138;5.444;2023-03-01T10:40:03;4.55;;;2.75;;
68718;SDS011;55696;52.138;5.444;2023-03-01T10:42:38;5.88;;;2.47;;
68718;SDS011;55696;52.138;5.444;2023-03-01T10:47:41;5.03;;;2.67;;
68718;SDS011;55696;52.138;5.444;2023-03-01T10:50:19;5.55;;;2.35;;
68718;SDS011;55696;52.138;5.444;2023-03-01T10:53:01;7.07;;;2.80;;
68718;SDS011;55696;52.138;5.444;2023-03-01T10:58:08;4.60;;;2.70;;
68718;SDS011;55696;52.138;5.444;2023-03-01T11:00:47;6.55;;;2.50;;
68718;SDS011;55696;52.138;5.444;2023-03-01T11:03:29;5.45;;;2.50;;
68718;SDS011;55696;52.138;5.444;2023-03-01T11:05:58;6.60;;;2.80;;
68718;SDS011;55696;52.138;5.444;2023-03-01T11:08:44;5.65;;;2.50;;
68718;SDS011;55696;52.138;5.444;2023-03-01T11:14:12;7.18;;;2.40;;
68718;SDS011;55696;52.138;5.444;2023-03-01T11:17:02;4.63;;;2.28;;
68718;SDS011;55696;52.138;5.444;2023-03-01T11:19:31;5.72;;;2.47;;
68718;SDS011;55696;52.138;5.444;2023-03-01T11:24:46;5.63;;;2.30;;
68718;SDS011;55696;52.138;5.444;2023-03-01T11:27:32;4.72;;;2.45;;
68718;SDS011;55696;52.138;5.444;2023-03-01T11:35:22;5.25;;;2.65;;
68718;SDS011;55696;52.138;5.444;2023-03-01T11:40:55;4.47;;;2.03;;
68718;SDS011;55696;52.138;5.444;2023-03-01T11:43:46;5.43;;;2.95;;
68718;SDS011;55696;52.138;5.444;2023-03-01T11:49:12;5.72;;;2.97;;
68718;SDS011;55696;52.138;5.444;2023-03-01T11:54:42;4.78;;;2.83;;
68718;SDS011;55696;52.138;5.444;2023-03-01T12:14:46;6.95;;;2.90;;
68718;SDS011;55696;52.138;5.444;2023-03-01T12:17:22;7.60;;;3.60;;
68718;SDS011;55696;52.138;5.444;2023-03-01T12:20:08;4.90;;;2.87;;
68718;SDS011;55696;52.138;5.444;2023-03-01T12:23:16;6.82;;;2.92;;
68718;SDS011;55696;52.138;5.444;2023-03-01T12:26:03;6.32;;;3.03;;
68718;SDS011;55696;52.138;5.444;2023-03-01T12:31:47;5.72;;;2.80;;
68718;SDS011;55696;52.138;5.444;2023-03-01T12:34:41;5.20;;;2.67;;
68718;SDS011;55696;52.138;5.444;2023-03-01T12:50:59;7.80;;;2.70;;
68718;SDS011;55696;52.138;5.444;2023-03-01T12:53:31;5.50;;;2.92;;
68718;SDS011;55696;52.138;5.444;2023-03-01T12:56:06;7.70;;;3.28;;
68718;SDS011;55696;52.138;5.444;2023-03-01T12:58:51;8.13;;;3.33;;
68718;SDS011;55696;52.138;5.444;2023-03-01T13:01:40;5.83;;;3.00;;
68718;SDS011;55696;52.138;5.444;2023-03-01T13:07:16;6.47;;;2.90;;
68718;SDS011;55696;52.138;5.444;2023-03-01T13:10:11;7.43;;;3.30;;
68718;SDS011;55696;52.138;5.444;2023-03-01T13:13:30;5.78;;;2.88;;
68718;SDS011;55696;52.138;5.444;2023-03-01T13:15:35;5.00;;;2.87;;
68718;SDS011;55696;52.138;5.444;2023-03-01T13:31:02;5.70;;;3.00;;
68718;SDS011;55696;52.138;5.444;2023-03-01T13:42:25;6.80;;;3.13;;
68718;SDS011;55696;52.138;5.444;2023-03-01T13:52:39;4.85;;;2.63;;
68718;SDS011;55696;52.138;5.444;2023-03-01T13:57:41;5.35;;;2.67;;
68718;SDS011;55696;52.138;5.444;2023-03-01T14:03:04;8.55;;;3.25;;
68718;SDS011;55696;52.138;5.444;2023-03-01T14:05:41;7.18;;;3.50;;
68718;SDS011;55696;52.138;5.444;2023-03-01T14:08:20;4.97;;;2.77;;
68718;SDS011;55696;52.138;5.444;2023-03-01T14:14:26;7.72;;;3.15;;
68718;SDS011;55696;52.138;5.444;2023-03-01T14:19:27;5.53;;;3.10;;
68718;SDS011;55696;52.138;5.444;2023-03-01T14:22:00;6.57;;;3.27;;
68718;SDS011;55696;52.138;5.444;2023-03-01T14:24:58;5.20;;;2.92;;
68718;SDS011;55696;52.138;5.444;2023-03-01T14:27:30;7.25;;;4.03;;
68718;SDS011;55696;52.138;5.444;2023-03-01T14:30:03;5.60;;;3.25;;
68718;SDS011;55696;52.138;5.444;2023-03-01T14:32:39;5.10;;;2.80;;
68718;SDS011;55696;52.138;5.444;2023-03-01T14:35:19;4.80;;;3.13;;
68718;SDS011;55696;52.138;5.444;2023-03-01T14:37:51;7.35;;;3.13;;
68718;SDS011;55696;52.138;5.444;2023-03-01T14:42:59;6.90;;;2.95;;
68718;SDS011;55696;52.138;5.444;2023-03-01T14:45:29;7.22;;;3.05;;
68718;SDS011;55696;52.138;5.444;2023-03-01T14:48:00;6.00;;;3.13;;
68718;SDS011;55696;52.138;5.444;2023-03-01T14:50:31;6.47;;;3.28;;
68718;SDS011;55696;52.138;5.444;2023-03-01T14:53:06;5.82;;;3.67;;
68718;SDS011;55696;52.138;5.444;2023-03-01T14:55:38;6.45;;;3.15;;
68718;SDS011;55696;52.138;5.444;2023-03-01T14:58:12;5.50;;;3.42;;
68718;SDS011;55696;52.138;5.444;2023-03-01T15:00:45;6.20;;;3.27;;
68718;SDS011;55696;52.138;5.444;2023-03-01T15:03:23;8.43;;;3.00;;
68718;SDS011;55696;52.138;5.444;2023-03-01T15:06:00;6.07;;;2.92;;
68718;SDS011;55696;52.138;5.444;2023-03-01T15:08:27;5.85;;;3.38;;
68718;SDS011;55696;52.138;5.444;2023-03-01T15:13:43;8.40;;;3.53;;
68718;SDS011;55696;52.138;5.444;2023-03-01T15:16:13;5.68;;;2.95;;
68718;SDS011;55696;52.138;5.444;2023-03-01T15:18:53;5.68;;;2.78;;
68718;SDS011;55696;52.138;5.444;2023-03-01T15:21:23;7.25;;;3.13;;
68718;SDS011;55696;52.138;5.444;2023-03-01T15:23:58;6.05;;;3.08;;
68718;SDS011;55696;52.138;5.444;2023-03-01T15:26:40;5.40;;;2.97;;
68718;SDS011;55696;52.138;5.444;2023-03-01T15:29:19;6.05;;;2.90;;
68718;SDS011;55696;52.138;5.444;2023-03-01T15:31:55;5.20;;;2.63;;
68718;SDS011;55696;52.138;5.444;2023-03-01T15:34:33;10.98;;;3.80;;
68718;SDS011;55696;52.138;5.444;2023-03-01T15:37:03;5.15;;;2.88;;
68718;SDS011;55696;52.138;5.444;2023-03-01T15:39:35;6.50;;;3.60;;
68718;SDS011;55696;52.138;5.444;2023-03-01T15:44:38;8.85;;;3.10;;
68718;SDS011;55696;52.138;5.444;2023-03-01T15:47:39;6.05;;;3.30;;
68718;SDS011;55696;52.138;5.444;2023-03-01T15:50:18;6.22;;;3.28;;
68718;SDS011;55696;52.138;5.444;2023-03-01T15:52:56;5.47;;;3.43;;
68718;SDS011;55696;52.138;5.444;2023-03-01T15:55:28;5.95;;;3.13;;
68718;SDS011;55696;52.138;5.444;2023-03-01T15:57:58;6.55;;;3.38;;
68718;SDS011;55696;52.138;5.444;2023-03-01T16:00:28;7.82;;;3.35;;
68718;SDS011;55696;52.138;5.444;2023-03-01T16:02:55;6.93;;;3.67;;
68718;SDS011;55696;52.138;5.444;2023-03-01T16:05:24;7.83;;;3.50;;
68718;SDS011;55696;52.138;5.444;2023-03-01T16:07:53;8.23;;;3.78;;
68718;SDS011;55696;52.138;5.444;2023-03-01T16:10:20;7.75;;;3.35;;
68718;SDS011;55696;52.138;5.444;2023-03-01T16:12:48;7.72;;;3.85;;
68718;SDS011;55696;52.138;5.444;2023-03-01T16:15:28;6.63;;;3.65;;
68718;SDS011;55696;52.138;5.444;2023-03-01T16:17:58;5.13;;;3.33;;
68718;SDS011;55696;52.138;5.444;2023-03-01T16:20:25;8.55;;;4.03;;
68718;SDS011;55696;52.138;5.444;2023-03-01T16:23:00;7.85;;;3.83;;
68718;SDS011;55696;52.138;5.444;2023-03-01T16:25:28;7.22;;;3.83;;
68718;SDS011;55696;52.138;5.444;2023-03-01T16:27:56;10.05;;;3.60;;
68718;SDS011;55696;52.138;5.444;2023-03-01T16:30:24;6.83;;;4.00;;
68718;SDS011;55696;52.138;5.444;2023-03-01T16:32:52;8.32;;;4.10;;
68718;SDS011;55696;52.138;5.444;2023-03-01T16:35:20;7.53;;;4.40;;
68718;SDS011;55696;52.138;5.444;2023-03-01T16:37:48;9.63;;;3.95;;
68718;SDS011;55696;52.138;5.444;2023-03-01T16:42:50;9.27;;;4.03;;
68718;SDS011;55696;52.138;5.444;2023-03-01T16:45:17;10.38;;;4.15;;
68718;SDS011;55696;52.138;5.444;2023-03-01T16:47:50;7.15;;;3.50;;
68718;SDS011;55696;52.138;5.444;2023-03-01T16:50:21;7.55;;;3.22;;
68718;SDS011;55696;52.138;5.444;2023-03-01T16:52:48;8.23;;;3.35;;
68718;SDS011;55696;52.138;5.444;2023-03-01T16:55:15;7.47;;;3.63;;
68718;SDS011;55696;52.138;5.444;2023-03-01T16:57:41;7.95;;;3.80;;
68718;SDS011;55696;52.138;5.444;2023-03-01T17:00:09;7.50;;;3.47;;
68718;SDS011;55696;52.138;5.444;2023-03-01T17:02:39;7.57;;;3.70;;
68718;SDS011;55696;52.138;5.444;2023-03-01T17:05:07;9.50;;;3.78;;
68718;SDS011;55696;52.138;5.444;2023-03-01T17:07:35;7.30;;;3.80;;
68718;SDS011;55696;52.138;5.444;2023-03-01T17:10:04;8.02;;;3.67;;
68718;SDS011;55696;52.138;5.444;2023-03-01T17:12:34;10.88;;;4.55;;
68718;SDS011;55696;52.138;5.444;2023-03-01T17:15:02;7.05;;;3.53;;
68718;SDS011;55696;52.138;5.444;2023-03-01T17:17:30;7.45;;;3.63;;
68718;SDS011;55696;52.138;5.444;2023-03-01T17:19:57;6.17;;;3.30;;